CBJ5879 ZHHH-ZGGG
Flight info
| Callsign | CBJ5879 |
|---|---|
| Flight time | 1h 19m |
| Altitude | 27600 |
| Route | OLMIB W37 VIKEB V66 VESUX W45 IKAVO |
| Aircraft | A321/M-SDE3FGHIRWY/LB1 |
Departure
| Time | 2026-05-06 15:03 |
|---|---|
| Airport | Wuhan Tianhe International Airport (ZHHH) |
Arrival
| Time | 2026-05-06 16:23 |
|---|---|
| Airport | Guangzhou Baiyun International Airport (ZGGG) |
| Time | Latitude | Longitude | Altitude | Speed | Heading |
|---|---|---|---|---|---|
| 2026-05-06 14:59 | 30.77151 | 114.19746 | 105 ft | 0 kts | 307° |
| 2026-05-06 15:00 | 30.77154 | 114.19742 | 104 ft | 2 kts | 309° |
| 2026-05-06 15:00 | 30.77164 | 114.19730 | 105 ft | 0 kts | 313° |
| 2026-05-06 15:01 | 30.77171 | 114.19721 | 103 ft | 3 kts | 313° |
| 2026-05-06 15:02 | 30.77185 | 114.19704 | 103 ft | 5 kts | 313° |
| 2026-05-06 15:02 | 30.77221 | 114.19668 | 105 ft | 8 kts | 336° |
| 2026-05-06 15:02 | 30.77268 | 114.19688 | 105 ft | 8 kts | 39° |
| 2026-05-06 15:02 | 30.77287 | 114.19707 | 105 ft | 9 kts | 40° |
| 2026-05-06 15:03 | 30.77472 | 114.19896 | 105 ft | 71 kts | 41° |
| 2026-05-06 15:03 | 30.78013 | 114.20449 | 111 ft | 133 kts | 41° |
| 2026-05-06 15:03 | 30.78824 | 114.21293 | 221 ft | 170 kts | 43° |
| 2026-05-06 15:03 | 30.79665 | 114.22179 | 934 ft | 161 kts | 44° |
| 2026-05-06 15:04 | 30.80617 | 114.22922 | 1480 ft | 169 kts | 28° |
| 2026-05-06 15:04 | 30.81694 | 114.23510 | 2056 ft | 171 kts | 25° |
| 2026-05-06 15:04 | 30.82792 | 114.24021 | 2603 ft | 169 kts | 20° |
| 2026-05-06 15:04 | 30.83905 | 114.24537 | 2975 ft | 180 kts | 24° |
| 2026-05-06 15:05 | 30.85102 | 114.25197 | 3169 ft | 201 kts | 26° |
| 2026-05-06 15:05 | 30.86500 | 114.25684 | 3313 ft | 221 kts | 358° |
| 2026-05-06 15:05 | 30.87979 | 114.25086 | 3452 ft | 236 kts | 317° |
| 2026-05-06 15:05 | 30.89087 | 114.23713 | 3889 ft | 242 kts | 308° |
| 2026-05-06 15:06 | 30.90203 | 114.22232 | 4651 ft | 243 kts | 308° |
| 2026-05-06 15:06 | 30.91323 | 114.20750 | 5366 ft | 245 kts | 308° |
| 2026-05-06 15:06 | 30.92448 | 114.19263 | 6072 ft | 247 kts | 308° |
| 2026-05-06 15:06 | 30.93597 | 114.17746 | 6774 ft | 250 kts | 308° |
| 2026-05-06 15:07 | 30.94750 | 114.16227 | 7468 ft | 252 kts | 309° |
| 2026-05-06 15:07 | 30.95901 | 114.14671 | 8168 ft | 252 kts | 302° |
| 2026-05-06 15:07 | 30.96527 | 114.12796 | 8818 ft | 250 kts | 272° |
| 2026-05-06 15:07 | 30.96252 | 114.10804 | 9259 ft | 260 kts | 243° |
| 2026-05-06 15:08 | 30.95058 | 114.09140 | 9520 ft | 278 kts | 220° |
| 2026-05-06 15:08 | 30.93565 | 114.07651 | 10024 ft | 286 kts | 221° |
| 2026-05-06 15:08 | 30.92006 | 114.06087 | 10259 ft | 306 kts | 221° |
| 2026-05-06 15:08 | 30.90361 | 114.04424 | 10389 ft | 328 kts | 221° |
| 2026-05-06 15:09 | 30.88585 | 114.02618 | 10503 ft | 349 kts | 222° |
| 2026-05-06 15:09 | 30.86728 | 114.00728 | 10618 ft | 368 kts | 222° |
| 2026-05-06 15:09 | 30.84778 | 113.98744 | 10799 ft | 383 kts | 222° |
| 2026-05-06 15:09 | 30.82758 | 113.96684 | 11285 ft | 389 kts | 222° |
| 2026-05-06 15:10 | 30.80709 | 113.94595 | 11881 ft | 392 kts | 222° |
| 2026-05-06 15:10 | 30.78659 | 113.92509 | 12478 ft | 394 kts | 222° |
| 2026-05-06 15:10 | 30.76582 | 113.90396 | 13078 ft | 397 kts | 222° |
| 2026-05-06 15:10 | 30.74495 | 113.88275 | 13669 ft | 400 kts | 222° |
| 2026-05-06 15:11 | 30.72255 | 113.86327 | 14178 ft | 406 kts | 211° |
| 2026-05-06 15:11 | 30.69637 | 113.85108 | 14690 ft | 412 kts | 195° |
| 2026-05-06 15:11 | 30.66755 | 113.84758 | 15198 ft | 419 kts | 180° |
| 2026-05-06 15:11 | 30.63863 | 113.85358 | 15684 ft | 428 kts | 164° |
| 2026-05-06 15:12 | 30.61078 | 113.86648 | 16161 ft | 432 kts | 160° |
| 2026-05-06 15:12 | 30.58292 | 113.87986 | 16634 ft | 435 kts | 160° |
| 2026-05-06 15:12 | 30.55485 | 113.89330 | 17090 ft | 437 kts | 160° |
| 2026-05-06 15:12 | 30.52667 | 113.90674 | 17545 ft | 440 kts | 161° |
| 2026-05-06 15:13 | 30.49826 | 113.92029 | 17982 ft | 443 kts | 161° |
| 2026-05-06 15:13 | 30.46963 | 113.93392 | 18374 ft | 446 kts | 161° |
| 2026-05-06 15:13 | 30.44074 | 113.94764 | 18725 ft | 449 kts | 161° |
| 2026-05-06 15:13 | 30.41179 | 113.96136 | 19071 ft | 452 kts | 161° |
| 2026-05-06 15:14 | 30.38257 | 113.97519 | 19402 ft | 455 kts | 161° |
| 2026-05-06 15:14 | 30.35370 | 113.98743 | 19719 ft | 454 kts | 168° |
| 2026-05-06 15:14 | 30.32237 | 113.99437 | 20054 ft | 452 kts | 178° |
| 2026-05-06 15:14 | 30.29154 | 113.99480 | 20378 ft | 449 kts | 188° |
| 2026-05-06 15:15 | 30.26079 | 113.98889 | 20705 ft | 447 kts | 198° |
| 2026-05-06 15:15 | 30.23158 | 113.97701 | 21034 ft | 444 kts | 207° |
| 2026-05-06 15:15 | 30.20319 | 113.96177 | 21382 ft | 445 kts | 208° |
| 2026-05-06 15:15 | 30.17540 | 113.94683 | 21724 ft | 447 kts | 208° |
| 2026-05-06 15:16 | 30.14715 | 113.93171 | 22059 ft | 449 kts | 208° |
| 2026-05-06 15:16 | 30.11874 | 113.91655 | 22388 ft | 450 kts | 208° |
| 2026-05-06 15:16 | 30.09027 | 113.90136 | 22698 ft | 452 kts | 208° |
| 2026-05-06 15:16 | 30.06171 | 113.88611 | 23003 ft | 453 kts | 208° |
| 2026-05-06 15:17 | 30.03305 | 113.87084 | 23318 ft | 455 kts | 208° |
| 2026-05-06 15:17 | 30.00416 | 113.85543 | 23596 ft | 457 kts | 208° |
| 2026-05-06 15:17 | 29.97535 | 113.84008 | 23855 ft | 459 kts | 208° |
| 2026-05-06 15:17 | 29.94626 | 113.82458 | 24107 ft | 460 kts | 208° |
| 2026-05-06 15:18 | 29.91727 | 113.80914 | 24380 ft | 462 kts | 208° |
| 2026-05-06 15:18 | 29.88757 | 113.79455 | 24621 ft | 467 kts | 203° |
| 2026-05-06 15:18 | 29.85588 | 113.78507 | 24864 ft | 474 kts | 194° |
| 2026-05-06 15:18 | 29.82285 | 113.78125 | 25156 ft | 478 kts | 188° |
| 2026-05-06 15:19 | 29.78973 | 113.77901 | 25503 ft | 477 kts | 188° |
| 2026-05-06 15:19 | 29.75665 | 113.77673 | 25842 ft | 476 kts | 188° |
| 2026-05-06 15:19 | 29.72362 | 113.77442 | 26186 ft | 476 kts | 188° |
| 2026-05-06 15:19 | 29.69044 | 113.77211 | 26533 ft | 475 kts | 189° |
| 2026-05-06 15:20 | 29.65767 | 113.76984 | 26880 ft | 474 kts | 189° |
| 2026-05-06 15:20 | 29.62471 | 113.76758 | 27240 ft | 474 kts | 189° |
| 2026-05-06 15:20 | 29.59183 | 113.76531 | 27420 ft | 474 kts | 189° |
| 2026-05-06 15:20 | 29.55897 | 113.76303 | 27461 ft | 471 kts | 189° |
| 2026-05-06 15:21 | 29.52624 | 113.76074 | 27461 ft | 470 kts | 189° |
| 2026-05-06 15:21 | 29.49409 | 113.75849 | 27461 ft | 470 kts | 189° |
| 2026-05-06 15:21 | 29.46146 | 113.75624 | 27461 ft | 469 kts | 189° |
| 2026-05-06 15:21 | 29.42877 | 113.75397 | 27464 ft | 469 kts | 189° |
| 2026-05-06 15:22 | 29.39571 | 113.75167 | 27469 ft | 469 kts | 189° |
| 2026-05-06 15:22 | 29.36348 | 113.74944 | 27465 ft | 469 kts | 189° |
| 2026-05-06 15:22 | 29.33090 | 113.74719 | 27471 ft | 469 kts | 189° |
| 2026-05-06 15:22 | 29.29826 | 113.74495 | 27470 ft | 469 kts | 189° |
| 2026-05-06 15:23 | 29.26578 | 113.74271 | 27471 ft | 469 kts | 189° |
| 2026-05-06 15:23 | 29.23306 | 113.74057 | 27471 ft | 470 kts | 188° |
| 2026-05-06 15:23 | 29.20030 | 113.73968 | 27468 ft | 472 kts | 186° |
| 2026-05-06 15:23 | 29.16739 | 113.74025 | 27467 ft | 474 kts | 184° |
| 2026-05-06 15:24 | 29.13443 | 113.74174 | 27469 ft | 474 kts | 183° |
| 2026-05-06 15:24 | 29.10142 | 113.74354 | 27471 ft | 474 kts | 183° |
| 2026-05-06 15:24 | 29.06841 | 113.74526 | 27468 ft | 474 kts | 184° |
| 2026-05-06 15:24 | 29.03558 | 113.74669 | 27467 ft | 474 kts | 184° |
| 2026-05-06 15:25 | 29.00252 | 113.74781 | 27466 ft | 473 kts | 184° |
| 2026-05-06 15:25 | 28.97003 | 113.74867 | 27464 ft | 473 kts | 185° |
| 2026-05-06 15:25 | 28.93718 | 113.74943 | 27466 ft | 473 kts | 185° |
| 2026-05-06 15:25 | 28.90420 | 113.75021 | 27468 ft | 474 kts | 185° |
| 2026-05-06 15:26 | 28.87122 | 113.75106 | 27470 ft | 474 kts | 184° |
| 2026-05-06 15:26 | 28.83827 | 113.75198 | 27468 ft | 474 kts | 184° |
| 2026-05-06 15:26 | 28.80532 | 113.75294 | 27468 ft | 474 kts | 184° |
| 2026-05-06 15:26 | 28.77235 | 113.75391 | 27468 ft | 474 kts | 184° |
| 2026-05-06 15:27 | 28.73933 | 113.75472 | 27473 ft | 473 kts | 186° |
| 2026-05-06 15:27 | 28.70659 | 113.75277 | 27475 ft | 470 kts | 189° |
| 2026-05-06 15:27 | 28.67396 | 113.75039 | 27474 ft | 470 kts | 189° |
| 2026-05-06 15:27 | 28.64124 | 113.74797 | 27475 ft | 470 kts | 189° |
| 2026-05-06 15:28 | 28.60857 | 113.74552 | 27475 ft | 471 kts | 189° |
| 2026-05-06 15:28 | 28.57591 | 113.74309 | 27476 ft | 471 kts | 189° |
| 2026-05-06 15:28 | 28.54320 | 113.74066 | 27475 ft | 471 kts | 189° |
| 2026-05-06 15:28 | 28.51058 | 113.73824 | 27479 ft | 471 kts | 189° |
| 2026-05-06 15:29 | 28.47789 | 113.73583 | 27477 ft | 471 kts | 188° |
| 2026-05-06 15:29 | 28.44520 | 113.73345 | 27483 ft | 471 kts | 188° |
| 2026-05-06 15:29 | 28.41247 | 113.73111 | 27477 ft | 471 kts | 188° |
| 2026-05-06 15:29 | 28.37989 | 113.72876 | 27478 ft | 471 kts | 188° |
| 2026-05-06 15:30 | 28.34706 | 113.72637 | 27483 ft | 471 kts | 189° |
| 2026-05-06 15:30 | 28.31480 | 113.72400 | 27484 ft | 471 kts | 189° |
| 2026-05-06 15:30 | 28.28205 | 113.72161 | 27488 ft | 471 kts | 188° |
| 2026-05-06 15:30 | 28.24947 | 113.71928 | 27486 ft | 471 kts | 188° |
| 2026-05-06 15:31 | 28.21709 | 113.71698 | 27488 ft | 471 kts | 188° |
| 2026-05-06 15:31 | 28.18402 | 113.71460 | 27492 ft | 470 kts | 189° |
| 2026-05-06 15:31 | 28.15137 | 113.71210 | 27493 ft | 469 kts | 191° |
| 2026-05-06 15:32 | 28.08935 | 113.69521 | 27488 ft | 458 kts | 205° |
| 2026-05-06 15:32 | 28.05939 | 113.68292 | 27483 ft | 458 kts | 204° |
| 2026-05-06 15:32 | 28.02935 | 113.67067 | 27484 ft | 458 kts | 204° |
| 2026-05-06 15:32 | 27.99934 | 113.65849 | 27483 ft | 458 kts | 204° |
| 2026-05-06 15:33 | 27.96923 | 113.64631 | 27478 ft | 458 kts | 204° |
| 2026-05-06 15:33 | 27.93939 | 113.63428 | 27474 ft | 458 kts | 204° |
| 2026-05-06 15:33 | 27.90920 | 113.62211 | 27477 ft | 458 kts | 204° |
| 2026-05-06 15:33 | 27.87928 | 113.61001 | 27476 ft | 458 kts | 204° |
| 2026-05-06 15:34 | 27.84926 | 113.59785 | 27478 ft | 458 kts | 204° |
| 2026-05-06 15:34 | 27.81933 | 113.58572 | 27471 ft | 458 kts | 204° |
| 2026-05-06 15:34 | 27.78934 | 113.57358 | 27471 ft | 458 kts | 204° |
| 2026-05-06 15:34 | 27.75932 | 113.56143 | 27471 ft | 458 kts | 204° |
| 2026-05-06 15:35 | 27.72926 | 113.54930 | 27472 ft | 458 kts | 204° |
| 2026-05-06 15:35 | 27.69923 | 113.53719 | 27470 ft | 458 kts | 204° |
| 2026-05-06 15:35 | 27.66920 | 113.52511 | 27469 ft | 458 kts | 204° |
| 2026-05-06 15:35 | 27.63914 | 113.51313 | 27469 ft | 459 kts | 203° |
| 2026-05-06 15:36 | 27.60881 | 113.50193 | 27469 ft | 460 kts | 202° |
| 2026-05-06 15:36 | 27.57809 | 113.49138 | 27468 ft | 461 kts | 201° |
| 2026-05-06 15:36 | 27.54736 | 113.48129 | 27466 ft | 461 kts | 200° |
| 2026-05-06 15:36 | 27.51647 | 113.47126 | 27467 ft | 461 kts | 200° |
| 2026-05-06 15:37 | 27.48563 | 113.46116 | 27465 ft | 461 kts | 201° |
| 2026-05-06 15:37 | 27.45490 | 113.45093 | 27465 ft | 461 kts | 201° |
| 2026-05-06 15:37 | 27.42411 | 113.44053 | 27462 ft | 462 kts | 201° |
| 2026-05-06 15:37 | 27.39334 | 113.43003 | 27459 ft | 462 kts | 201° |
| 2026-05-06 15:38 | 27.36264 | 113.41951 | 27461 ft | 462 kts | 201° |
| 2026-05-06 15:38 | 27.33174 | 113.40905 | 27459 ft | 463 kts | 199° |
| 2026-05-06 15:38 | 27.30022 | 113.40131 | 27465 ft | 466 kts | 195° |
| 2026-05-06 15:38 | 27.26867 | 113.39426 | 27466 ft | 467 kts | 195° |
| 2026-05-06 15:39 | 27.23641 | 113.38708 | 27465 ft | 467 kts | 195° |
| 2026-05-06 15:39 | 27.20457 | 113.37999 | 27482 ft | 467 kts | 195° |
| 2026-05-06 15:39 | 27.17264 | 113.37286 | 27477 ft | 467 kts | 195° |
| 2026-05-06 15:39 | 27.14088 | 113.36578 | 27469 ft | 467 kts | 195° |
| 2026-05-06 15:40 | 27.10934 | 113.35874 | 27478 ft | 467 kts | 195° |
| 2026-05-06 15:40 | 27.07743 | 113.35161 | 27476 ft | 467 kts | 196° |
| 2026-05-06 15:40 | 27.04552 | 113.34446 | 27475 ft | 468 kts | 196° |
| 2026-05-06 15:40 | 27.01354 | 113.33728 | 27474 ft | 468 kts | 196° |
| 2026-05-06 15:41 | 26.98163 | 113.33013 | 27473 ft | 468 kts | 196° |
| 2026-05-06 15:41 | 26.94971 | 113.32300 | 27473 ft | 468 kts | 195° |
| 2026-05-06 15:41 | 26.91778 | 113.31589 | 27479 ft | 468 kts | 195° |
| 2026-05-06 15:41 | 26.88589 | 113.30880 | 27475 ft | 468 kts | 195° |
| 2026-05-06 15:42 | 26.85394 | 113.30171 | 27477 ft | 468 kts | 195° |
| 2026-05-06 15:42 | 26.82192 | 113.29462 | 27477 ft | 468 kts | 195° |
| 2026-05-06 15:42 | 26.78992 | 113.28752 | 27474 ft | 468 kts | 195° |
| 2026-05-06 15:42 | 26.75797 | 113.28041 | 27475 ft | 468 kts | 196° |
| 2026-05-06 15:43 | 26.72612 | 113.27332 | 27474 ft | 469 kts | 196° |
| 2026-05-06 15:43 | 26.69406 | 113.26622 | 27477 ft | 469 kts | 195° |
| 2026-05-06 15:43 | 26.66279 | 113.25930 | 27478 ft | 469 kts | 195° |
| 2026-05-06 15:43 | 26.63034 | 113.25213 | 27480 ft | 469 kts | 195° |
| 2026-05-06 15:44 | 26.59830 | 113.24506 | 27482 ft | 469 kts | 195° |
| 2026-05-06 15:44 | 26.56621 | 113.23796 | 27481 ft | 469 kts | 195° |
| 2026-05-06 15:44 | 26.53423 | 113.23091 | 27481 ft | 469 kts | 195° |
| 2026-05-06 15:44 | 26.50223 | 113.22384 | 27484 ft | 469 kts | 195° |
| 2026-05-06 15:45 | 26.47005 | 113.21671 | 27480 ft | 470 kts | 195° |
| 2026-05-06 15:45 | 26.43807 | 113.20963 | 27480 ft | 470 kts | 195° |
| 2026-05-06 15:45 | 26.40598 | 113.20255 | 27483 ft | 470 kts | 195° |
| 2026-05-06 15:45 | 26.37394 | 113.19549 | 27483 ft | 470 kts | 195° |
| 2026-05-06 15:46 | 26.34191 | 113.18844 | 27484 ft | 470 kts | 195° |
| 2026-05-06 15:46 | 26.31013 | 113.18143 | 27492 ft | 470 kts | 195° |
| 2026-05-06 15:46 | 26.27763 | 113.17427 | 27494 ft | 470 kts | 195° |
| 2026-05-06 15:46 | 26.24551 | 113.16720 | 27496 ft | 470 kts | 195° |
| 2026-05-06 15:47 | 26.21387 | 113.16024 | 27498 ft | 470 kts | 195° |
| 2026-05-06 15:47 | 26.18164 | 113.15315 | 27499 ft | 470 kts | 195° |
| 2026-05-06 15:47 | 26.14947 | 113.14608 | 27497 ft | 470 kts | 195° |
| 2026-05-06 15:47 | 26.11738 | 113.13906 | 27495 ft | 470 kts | 195° |
| 2026-05-06 15:48 | 26.08531 | 113.13202 | 27500 ft | 470 kts | 195° |
| 2026-05-06 15:48 | 26.05329 | 113.12495 | 27501 ft | 470 kts | 195° |
| 2026-05-06 15:48 | 26.02114 | 113.11788 | 27503 ft | 470 kts | 195° |
| 2026-05-06 15:48 | 25.98891 | 113.11083 | 27506 ft | 471 kts | 195° |
| 2026-05-06 15:49 | 25.96733 | 113.10609 | 27507 ft | 471 kts | 195° |
| 2026-05-06 15:49 | 25.92469 | 113.09671 | 27515 ft | 471 kts | 195° |
| 2026-05-06 15:49 | 25.90339 | 113.09205 | 27513 ft | 471 kts | 195° |
| 2026-05-06 15:49 | 25.87120 | 113.08502 | 27518 ft | 471 kts | 195° |
| 2026-05-06 15:50 | 25.83915 | 113.07806 | 27520 ft | 471 kts | 195° |
| 2026-05-06 15:50 | 25.80692 | 113.07109 | 27526 ft | 471 kts | 195° |
| 2026-05-06 15:50 | 25.77471 | 113.06428 | 27529 ft | 472 kts | 193° |
| 2026-05-06 15:50 | 25.74182 | 113.06109 | 27531 ft | 477 kts | 185° |
| 2026-05-06 15:51 | 25.70870 | 113.06032 | 27535 ft | 477 kts | 185° |
| 2026-05-06 15:51 | 25.67537 | 113.05950 | 27536 ft | 477 kts | 185° |
| 2026-05-06 15:51 | 25.64225 | 113.05867 | 27535 ft | 477 kts | 185° |
| 2026-05-06 15:51 | 25.60882 | 113.05782 | 27540 ft | 478 kts | 185° |
| 2026-05-06 15:52 | 25.57565 | 113.05696 | 27541 ft | 478 kts | 185° |
| 2026-05-06 15:52 | 25.54282 | 113.05611 | 27539 ft | 478 kts | 185° |
| 2026-05-06 15:52 | 25.50919 | 113.05525 | 27546 ft | 478 kts | 185° |
| 2026-05-06 15:52 | 25.47599 | 113.05439 | 27550 ft | 478 kts | 185° |
| 2026-05-06 15:53 | 25.44263 | 113.05355 | 27549 ft | 478 kts | 185° |
| 2026-05-06 15:53 | 25.40984 | 113.05273 | 27557 ft | 478 kts | 185° |
| 2026-05-06 15:53 | 25.37657 | 113.05192 | 27555 ft | 478 kts | 185° |
| 2026-05-06 15:53 | 25.34324 | 113.05110 | 27557 ft | 478 kts | 185° |
| 2026-05-06 15:54 | 25.31007 | 113.05026 | 27552 ft | 479 kts | 185° |
| 2026-05-06 15:54 | 25.27670 | 113.04943 | 27556 ft | 479 kts | 185° |
| 2026-05-06 15:54 | 25.24346 | 113.04858 | 27560 ft | 479 kts | 185° |
| 2026-05-06 15:54 | 25.21004 | 113.04770 | 27566 ft | 479 kts | 185° |
| 2026-05-06 15:55 | 25.17672 | 113.04685 | 27477 ft | 480 kts | 185° |
| 2026-05-06 15:55 | 25.14338 | 113.04599 | 27244 ft | 479 kts | 185° |
| 2026-05-06 15:55 | 25.10998 | 113.04511 | 26946 ft | 480 kts | 185° |
| 2026-05-06 15:55 | 25.07660 | 113.04424 | 26641 ft | 481 kts | 185° |
| 2026-05-06 15:56 | 25.04308 | 113.04341 | 26332 ft | 482 kts | 185° |
| 2026-05-06 15:56 | 25.00954 | 113.04259 | 26029 ft | 483 kts | 185° |
| 2026-05-06 15:56 | 24.97598 | 113.04176 | 25733 ft | 484 kts | 185° |
| 2026-05-06 15:56 | 24.94230 | 113.04093 | 25440 ft | 485 kts | 184° |
| 2026-05-06 15:57 | 24.90855 | 113.04011 | 25140 ft | 486 kts | 184° |
| 2026-05-06 15:57 | 24.87475 | 113.03928 | 24845 ft | 487 kts | 184° |
| 2026-05-06 15:57 | 24.84074 | 113.03840 | 24556 ft | 487 kts | 184° |
| 2026-05-06 15:57 | 24.80684 | 113.03756 | 24270 ft | 488 kts | 184° |
| 2026-05-06 15:58 | 24.77283 | 113.03670 | 23984 ft | 489 kts | 184° |
| 2026-05-06 15:58 | 24.73870 | 113.03584 | 23698 ft | 490 kts | 184° |
| 2026-05-06 15:58 | 24.70463 | 113.03499 | 23396 ft | 490 kts | 184° |
| 2026-05-06 15:58 | 24.67077 | 113.03414 | 23062 ft | 488 kts | 184° |
| 2026-05-06 15:59 | 24.63716 | 113.03328 | 22731 ft | 485 kts | 184° |
| 2026-05-06 15:59 | 24.60308 | 113.03241 | 22392 ft | 482 kts | 184° |
| 2026-05-06 15:59 | 24.56972 | 113.03157 | 22074 ft | 479 kts | 184° |
| 2026-05-06 15:59 | 24.53687 | 113.03078 | 21753 ft | 477 kts | 184° |
| 2026-05-06 16:00 | 24.50378 | 113.02999 | 21433 ft | 482 kts | 184° |
| 2026-05-06 16:00 | 24.46978 | 113.03036 | 21439 ft | 492 kts | 178° |
| 2026-05-06 16:00 | 24.43586 | 113.03579 | 21490 ft | 488 kts | 170° |
| 2026-05-06 16:00 | 24.40321 | 113.04438 | 21176 ft | 480 kts | 169° |
| 2026-05-06 16:01 | 24.37091 | 113.05319 | 20865 ft | 476 kts | 169° |
| 2026-05-06 16:01 | 24.33892 | 113.06202 | 20554 ft | 473 kts | 168° |
| 2026-05-06 16:01 | 24.30700 | 113.07085 | 20240 ft | 470 kts | 169° |
| 2026-05-06 16:01 | 24.27538 | 113.07953 | 19940 ft | 467 kts | 169° |
| 2026-05-06 16:02 | 24.24388 | 113.08810 | 19635 ft | 465 kts | 169° |
| 2026-05-06 16:02 | 24.21268 | 113.09653 | 19376 ft | 462 kts | 169° |
| 2026-05-06 16:02 | 24.18151 | 113.10494 | 19127 ft | 460 kts | 169° |
| 2026-05-06 16:02 | 24.15056 | 113.11328 | 18871 ft | 458 kts | 169° |
| 2026-05-06 16:03 | 24.11956 | 113.12164 | 18583 ft | 456 kts | 169° |
| 2026-05-06 16:03 | 24.08923 | 113.12981 | 18299 ft | 454 kts | 169° |
| 2026-05-06 16:03 | 24.05864 | 113.13805 | 17969 ft | 452 kts | 169° |
| 2026-05-06 16:03 | 24.02785 | 113.14636 | 17624 ft | 449 kts | 169° |
| 2026-05-06 16:04 | 23.99815 | 113.15430 | 17312 ft | 447 kts | 169° |
| 2026-05-06 16:04 | 23.96844 | 113.16221 | 16984 ft | 445 kts | 169° |
| 2026-05-06 16:04 | 23.93846 | 113.17016 | 16668 ft | 443 kts | 169° |
| 2026-05-06 16:04 | 23.90851 | 113.17808 | 16340 ft | 440 kts | 169° |
| 2026-05-06 16:05 | 23.87883 | 113.18591 | 16035 ft | 438 kts | 169° |
| 2026-05-06 16:05 | 23.84927 | 113.19373 | 15724 ft | 436 kts | 169° |
| 2026-05-06 16:05 | 23.81987 | 113.20153 | 15420 ft | 433 kts | 169° |
| 2026-05-06 16:05 | 23.79205 | 113.20894 | 15130 ft | 432 kts | 169° |
| 2026-05-06 16:06 | 23.76319 | 113.21662 | 14830 ft | 423 kts | 169° |
| 2026-05-06 16:06 | 23.73501 | 113.22412 | 14551 ft | 411 kts | 169° |
| 2026-05-06 16:06 | 23.70760 | 113.23133 | 14280 ft | 398 kts | 171° |
| 2026-05-06 16:06 | 23.68076 | 113.23569 | 14015 ft | 385 kts | 178° |
| 2026-05-06 16:07 | 23.65443 | 113.23628 | 13787 ft | 372 kts | 185° |
| 2026-05-06 16:07 | 23.62888 | 113.23345 | 13489 ft | 366 kts | 192° |
| 2026-05-06 16:07 | 23.60430 | 113.22838 | 13196 ft | 365 kts | 193° |
| 2026-05-06 16:07 | 23.57946 | 113.22325 | 12945 ft | 363 kts | 193° |
| 2026-05-06 16:08 | 23.55709 | 113.21868 | 12721 ft | 361 kts | 193° |
| 2026-05-06 16:08 | 23.53241 | 113.21367 | 12475 ft | 359 kts | 193° |
| 2026-05-06 16:08 | 23.50778 | 113.20868 | 12228 ft | 358 kts | 193° |
| 2026-05-06 16:08 | 23.48442 | 113.20508 | 11997 ft | 348 kts | 185° |
| 2026-05-06 16:09 | 23.46041 | 113.20626 | 11758 ft | 341 kts | 174° |
| 2026-05-06 16:09 | 23.43749 | 113.21224 | 11518 ft | 339 kts | 163° |
| 2026-05-06 16:09 | 23.41591 | 113.22258 | 11276 ft | 340 kts | 154° |
| 2026-05-06 16:09 | 23.39620 | 113.23688 | 11046 ft | 342 kts | 143° |
| 2026-05-06 16:10 | 23.37900 | 113.25479 | 10810 ft | 343 kts | 133° |
| 2026-05-06 16:10 | 23.36497 | 113.27582 | 10574 ft | 344 kts | 122° |
| 2026-05-06 16:10 | 23.35374 | 113.29853 | 10331 ft | 336 kts | 120° |
| 2026-05-06 16:10 | 23.34293 | 113.32058 | 10117 ft | 327 kts | 122° |
| 2026-05-06 16:11 | 23.33045 | 113.34007 | 9902 ft | 316 kts | 133° |
| 2026-05-06 16:11 | 23.31518 | 113.35629 | 9768 ft | 295 kts | 144° |
| 2026-05-06 16:11 | 23.29889 | 113.36843 | 9638 ft | 277 kts | 154° |
| 2026-05-06 16:11 | 23.28155 | 113.37720 | 9494 ft | 273 kts | 163° |
| 2026-05-06 16:12 | 23.26352 | 113.38269 | 9360 ft | 268 kts | 172° |
| 2026-05-06 16:12 | 23.24510 | 113.38506 | 9179 ft | 265 kts | 181° |
| 2026-05-06 16:12 | 23.22704 | 113.38426 | 8966 ft | 262 kts | 189° |
| 2026-05-06 16:12 | 23.20942 | 113.38064 | 8730 ft | 259 kts | 197° |
| 2026-05-06 16:13 | 23.19197 | 113.37579 | 8486 ft | 258 kts | 196° |
| 2026-05-06 16:13 | 23.17455 | 113.37109 | 8231 ft | 257 kts | 196° |
| 2026-05-06 16:13 | 23.15725 | 113.36643 | 7990 ft | 256 kts | 196° |
| 2026-05-06 16:13 | 23.14010 | 113.36181 | 7745 ft | 252 kts | 195° |
| 2026-05-06 16:14 | 23.12318 | 113.35727 | 7505 ft | 248 kts | 195° |
| 2026-05-06 16:14 | 23.10652 | 113.35280 | 7265 ft | 245 kts | 195° |
| 2026-05-06 16:14 | 23.09166 | 113.34878 | 7079 ft | 238 kts | 195° |
| 2026-05-06 16:14 | 23.07583 | 113.34453 | 6835 ft | 231 kts | 195° |
| 2026-05-06 16:15 | 23.06070 | 113.33962 | 6586 ft | 223 kts | 208° |
| 2026-05-06 16:15 | 23.04976 | 113.32827 | 6353 ft | 219 kts | 241° |
| 2026-05-06 16:15 | 23.04671 | 113.31222 | 6109 ft | 222 kts | 274° |
| 2026-05-06 16:15 | 23.05029 | 113.29585 | 5774 ft | 224 kts | 285° |
| 2026-05-06 16:16 | 23.05514 | 113.27981 | 5383 ft | 225 kts | 286° |
| 2026-05-06 16:16 | 23.06020 | 113.26362 | 5002 ft | 226 kts | 286° |
| 2026-05-06 16:16 | 23.06641 | 113.24791 | 4595 ft | 229 kts | 304° |
| 2026-05-06 16:16 | 23.07840 | 113.23698 | 4247 ft | 231 kts | 334° |
| 2026-05-06 16:17 | 23.09393 | 113.23387 | 3937 ft | 228 kts | 6° |
| 2026-05-06 16:17 | 23.10924 | 113.23758 | 3750 ft | 224 kts | 14° |
| 2026-05-06 16:17 | 23.12331 | 113.24136 | 3600 ft | 211 kts | 14° |
| 2026-05-06 16:17 | 23.13725 | 113.24510 | 3401 ft | 203 kts | 14° |
| 2026-05-06 16:18 | 23.15094 | 113.24878 | 3210 ft | 202 kts | 14° |
| 2026-05-06 16:18 | 23.16452 | 113.25243 | 3062 ft | 201 kts | 14° |
| 2026-05-06 16:18 | 23.17810 | 113.25609 | 2989 ft | 201 kts | 15° |
| 2026-05-06 16:18 | 23.19166 | 113.25974 | 3010 ft | 201 kts | 15° |
| 2026-05-06 16:19 | 23.20502 | 113.26334 | 3003 ft | 201 kts | 15° |
| 2026-05-06 16:19 | 23.21881 | 113.26705 | 2933 ft | 202 kts | 15° |
| 2026-05-06 16:19 | 23.23227 | 113.27068 | 2720 ft | 201 kts | 15° |
| 2026-05-06 16:19 | 23.24584 | 113.27434 | 2469 ft | 199 kts | 15° |
| 2026-05-06 16:20 | 23.25894 | 113.27786 | 2225 ft | 188 kts | 15° |
| 2026-05-06 16:20 | 23.27112 | 113.28114 | 2003 ft | 172 kts | 16° |
| 2026-05-06 16:20 | 23.28236 | 113.28417 | 1782 ft | 163 kts | 16° |
| 2026-05-06 16:20 | 23.29318 | 113.28709 | 1578 ft | 158 kts | 16° |
| 2026-05-06 16:21 | 23.30376 | 113.28995 | 1370 ft | 156 kts | 16° |
| 2026-05-06 16:21 | 23.31321 | 113.29250 | 1178 ft | 155 kts | 15° |
| 2026-05-06 16:21 | 23.32394 | 113.29539 | 981 ft | 153 kts | 15° |
| 2026-05-06 16:21 | 23.33420 | 113.29816 | 794 ft | 151 kts | 15° |
| 2026-05-06 16:22 | 23.34432 | 113.30090 | 584 ft | 149 kts | 15° |
| 2026-05-06 16:22 | 23.35424 | 113.30370 | 421 ft | 146 kts | 15° |
| 2026-05-06 16:22 | 23.36407 | 113.30635 | 204 ft | 144 kts | 14° |
| 2026-05-06 16:22 | 23.37384 | 113.30895 | 73 ft | 144 kts | 15° |
| 2026-05-06 16:23 | 23.38250 | 113.31121 | 54 ft | 107 kts | 13° |
| 2026-05-06 16:23 | 23.38796 | 113.31267 | 54 ft | 58 kts | 14° |
| 2026-05-06 16:23 | 23.39025 | 113.31292 | 53 ft | 20 kts | 347° |
| 2026-05-06 16:23 | 23.39155 | 113.31260 | 53 ft | 18 kts | 348° |
| 2026-05-06 16:24 | 23.39280 | 113.31232 | 54 ft | 19 kts | 348° |
| 2026-05-06 16:24 | 23.39377 | 113.31224 | 55 ft | 12 kts | 14° |
| 2026-05-06 16:24 | 23.39454 | 113.31246 | 57 ft | 13 kts | 15° |
| 2026-05-06 16:24 | 23.39549 | 113.31273 | 54 ft | 15 kts | 14° |
| 2026-05-06 16:25 | 23.39653 | 113.31301 | 54 ft | 16 kts | 14° |
| 2026-05-06 16:25 | 23.39743 | 113.31284 | 57 ft | 12 kts | 302° |
| 2026-05-06 16:25 | 23.39756 | 113.31235 | 58 ft | 7 kts | 282° |
| 2026-05-06 16:25 | 23.39769 | 113.31175 | 58 ft | 11 kts | 285° |
| 2026-05-06 16:26 | 23.39793 | 113.31075 | 58 ft | 15 kts | 284° |
| 2026-05-06 16:26 | 23.39810 | 113.31001 | 58 ft | 0 kts | 283° |
| 2026-05-06 16:26 | 23.39810 | 113.31000 | 58 ft | 1 kts | 283° |
| 2026-05-06 16:26 | 23.39814 | 113.30971 | 52 ft | 7 kts | 269° |
| 2026-05-06 16:27 | 23.39765 | 113.30926 | 58 ft | 13 kts | 201° |
| 2026-05-06 16:27 | 23.39672 | 113.30900 | 54 ft | 15 kts | 194° |
| 2026-05-06 16:27 | 23.39561 | 113.30870 | 54 ft | 18 kts | 193° |
| 2026-05-06 16:27 | 23.39499 | 113.30807 | 57 ft | 14 kts | 269° |
| 2026-05-06 16:28 | 23.39519 | 113.30683 | 58 ft | 13 kts | 268° |
| 2026-05-06 16:28 | 23.39443 | 113.30639 | 52 ft | 16 kts | 196° |
| 2026-05-06 16:28 | 23.39313 | 113.30602 | 54 ft | 22 kts | 191° |
| 2026-05-06 16:28 | 23.39231 | 113.30540 | 55 ft | 11 kts | 259° |
| 2026-05-06 16:29 | 23.39247 | 113.30456 | 57 ft | 12 kts | 283° |
| 2026-05-06 16:29 | 23.39231 | 113.30391 | 54 ft | 6 kts | 213° |
| 2026-05-06 16:29 | 23.39205 | 113.30382 | 53 ft | 0 kts | 196° |